Portada
METAR-TAF:

METAR-TAF

Aeropuertos :

Aeropuerto de Murcia-San Javier

Murcia, España

latitud: 37-47N, longitud: 000-48W, altitud: 5 m

Observación

El informe se hizo hace 42 minutos, a las 23:30 UTC
Viento 6 kt del suroeste
Temperatura 9°C
Humedad 49%
Presión 1016 hPa
Visibilidad: 8000 m

METAR: LELC 282330Z AUTO 23006KT 8000 NCD 09/M01 Q1016

Hora: 01:12 (00:12 UTC)

Pronóstico

El informe se hizo hace 1 hora y 12 minutos, a las 23:00 UTC
Pronóstico válido del 29 a las 00 UTC al 29 a las 24 UTC
Viento 9 kt del oeste-noroeste
Visibilidad 10 km o más
sin nubes por debajo de 1500 m y sin presencia de cumulonimbus.
Temporalmente
del 29 a las 09 UTC al 29 a las 13 UTC
Viento 18 kt del noroeste con ráfagas de 28 kt

TAF: LELC 282300Z 2900/2924 29009KT CAVOK TX19/2914Z TN07/2906Z TEMPO 2909/2913 31018G28KT

Observaciones y pronósticos meteorológicos de más de 4000 aeropuertos (mensajes METAR y TAF).

Los puntos amarillos y rojos representan las estaciones disponibles.

Ponga el ratón en el punto deseado para ver el nombre de la estación.

Haga clic para ver las observaciones y los pronósticos meteorológicos.

Para cambiar el mapa : haga clic en los botones verdes con una cruz de color negro para hacer un zoom, en el botón verde con un guión para alejar o en las flechas verdes para mapas adyacentes.


METAR-TAF: